메인 페이지
위성 영상 10일간 예보기후바다 날씨 사이클론 낙뢰 공항FAQ 뉴스레터 소개
날씨 : 유럽 아프리카 북아메리카 남아메리카 아시아 오스트레일리아-오세아니아 기타
언어 문의하기

칭다오, 중국

칭다오 류팅 국제공항

위도: 36-04N, 경도: 120-20E, 고도: 77m


METAR: ZSQD 020700Z 29005MPS 3000 BR SCT007 OVC026 11/09 Q0997 BECMG TL0830 2500 BR
TAF: ZSQD 020313Z 0206/0306 33007MPS 3500 BR SCT007 OVC020 TX15/0206Z TN06/22Z

시각: 15:45 (07:45 UTC)

현재 날씨관측

예보는 45분 전, 07:00시(UTC)에 발표되었습니다.
서북서10kt
온도 11°C
습도 87%
기압 997 hPa
시정: 3000m
고도 700ft 상공 구름 보통
고도 2600ft 상공 흐림
박무

단위계 변경

예보

예보는 4 시간 32분 전, 03:13시(UTC)에 발표되었습니다.
예보 대상 시간: 02일 06시부터 03일 06시까지 (UTC)
북북서14kt
시정: 3500m
고도 700ft 상공 구름 보통
고도 2000ft 상공 흐림
박무
이 웹사이트상의 정보에 대하여 어떠한 법적 책임을 지지 않습니다 (면책 조항)
날씨 : 유럽 아프리카 북아메리카 남아메리카 아시아 오스트레일리아-오세아니아 기타
위성 영상 10일간 예보기후바다 날씨 사이클론 낙뢰 공항FAQ 언어 문의하기 뉴스레터 소개